Time;durP1;ratioP1;P1;durP2;ratioP2;P2;SDS_P1;SDS_P2;PMS_P1;PMS_P2;Temp;Humidity;BMP_temperature;BMP_pressure;BME280_temperature;BME280_humidity;BME280_pressure;Samples;Min_cycle;Max_cycle;Signal;HPM_P1;HPM_P2
2022/08/31 00:05:59;;;;;;;4.68;1.80;;;22.40;82.90;;;;;;5033103;28;20068;-69
2022/08/31 00:08:26;;;;;;;3.85;1.48;;;22.40;82.60;;;;;;5032674;28;20069;-70
2022/08/31 00:10:54;;;;;;;3.67;1.70;;;22.40;83.00;;;;;;5033288;28;20518;-70
2022/08/31 00:13:20;;;;;;;4.05;2.03;;;22.40;82.90;;;;;;5032965;28;20037;-70
2022/08/31 00:15:46;;;;;;;1.88;1.63;;;22.50;82.80;;;;;;5032183;28;20033;-69
2022/08/31 00:18:13;;;;;;;2.88;1.70;;;22.40;82.70;;;;;;5037899;28;20090;-70
2022/08/31 00:20:39;;;;;;;4.57;1.80;;;22.30;83.00;;;;;;5049548;28;20033;-70
2022/08/31 00:23:08;;;;;;;2.42;2.00;;;22.30;82.90;;;;;;5055824;28;20031;-70
2022/08/31 00:25:35;;;;;;;4.40;2.00;;;22.40;82.90;;;;;;5056962;28;20025;-70
2022/08/31 00:28:01;;;;;;;7.07;2.42;;;22.30;82.90;;;;;;5057066;28;20032;-70
2022/08/31 00:30:27;;;;;;;5.45;1.92;;;22.30;83.00;;;;;;5056598;28;20035;-70
2022/08/31 00:32:53;;;;;;;6.03;1.90;;;22.30;83.00;;;;;;5055705;28;20021;-69
2022/08/31 00:35:19;;;;;;;3.38;1.73;;;22.30;83.00;;;;;;5056907;28;20029;-70
2022/08/31 00:37:44;;;;;;;4.75;2.08;;;22.20;83.50;;;;;;5056584;28;20048;-70
2022/08/31 00:40:11;;;;;;;3.38;1.98;;;22.20;83.50;;;;;;5056852;28;20025;-70
2022/08/31 00:42:36;;;;;;;5.63;2.15;;;22.10;83.90;;;;;;5049921;28;20076;-70
2022/08/31 00:45:03;;;;;;;4.30;1.85;;;22.20;83.40;;;;;;5036616;28;20045;-70
2022/08/31 00:47:29;;;;;;;4.70;2.08;;;22.20;83.50;;;;;;5051008;28;20040;-70
2022/08/31 00:49:55;;;;;;;4.07;1.88;;;22.20;83.40;;;;;;5056821;28;20025;-70
2022/08/31 00:52:32;;;;;;;5.25;2.28;;;22.20;83.50;;;;;;5054547;28;20389;-69
2022/08/31 00:55:04;;;;;;;2.97;1.90;;;22.10;83.40;;;;;;5036648;28;20482;-69
2022/08/31 00:57:34;;;;;;;4.05;2.08;;;22.20;83.50;;;;;;5036571;28;20101;-69
2022/08/31 01:00:03;;;;;;;2.13;1.77;;;22.10;83.60;;;;;;5036379;28;20535;-71
2022/08/31 01:02:28;;;;;;;2.60;2.10;;;22.10;84.00;;;;;;5036122;28;20441;-70
2022/08/31 01:04:54;;;;;;;2.88;2.03;;;22.00;84.10;;;;;;5036367;28;20111;-69
2022/08/31 01:07:20;;;;;;;4.10;2.50;;;22.00;84.00;;;;;;5035147;28;20072;-68
2022/08/31 01:09:46;;;;;;;4.18;2.15;;;22.10;83.90;;;;;;5036402;28;20034;-68
2022/08/31 01:12:12;;;;;;;4.95;1.98;;;22.10;83.80;;;;;;5049905;28;20453;-66
2022/08/31 01:14:38;;;;;;;5.57;1.98;;;22.10;84.00;;;;;;5054763;28;20398;-70
2022/08/31 01:17:04;;;;;;;2.15;1.77;;;22.20;83.70;;;;;;5056010;28;20029;-69
2022/08/31 01:19:36;;;;;;;2.70;2.15;;;22.20;83.50;;;;;;5055880;28;20032;-71
2022/08/31 01:22:11;;;;;;;6.05;2.70;;;22.10;84.00;;;;;;5041320;28;20521;-71
2022/08/31 01:24:40;;;;;;;5.22;2.30;;;22.00;84.80;;;;;;5035662;28;20028;-68
2022/08/31 01:27:06;;;;;;;3.45;2.28;;;22.00;83.90;;;;;;5035946;28;20033;-69
2022/08/31 01:29:33;;;;;;;4.78;2.40;;;22.10;84.00;;;;;;5035511;28;20017;-69
2022/08/31 01:31:58;;;;;;;3.15;2.20;;;22.10;84.00;;;;;;5034052;28;20055;-69
2022/08/31 01:34:24;;;;;;;3.80;2.05;;;21.90;84.40;;;;;;5034231;28;20060;-69
2022/08/31 01:36:51;;;;;;;6.55;2.10;;;21.90;84.60;;;;;;5035663;28;20032;-69
2022/08/31 01:39:17;;;;;;;5.60;2.20;;;21.90;84.70;;;;;;5042549;28;20036;-69
2022/08/31 01:41:43;;;;;;;4.07;2.10;;;21.70;85.10;;;;;;5039077;28;20017;-68
2022/08/31 01:44:18;;;;;;;3.88;1.95;;;21.80;85.10;;;;;;5055187;28;20394;-69
2022/08/31 01:46:44;;;;;;;3.80;2.00;;;21.70;85.40;;;;;;5055462;28;20017;-68
2022/08/31 01:49:11;;;;;;;5.55;2.45;;;21.80;85.30;;;;;;5055385;28;20029;-69
2022/08/31 01:51:37;;;;;;;2.85;2.15;;;21.70;85.30;;;;;;5053323;28;20556;-69
2022/08/31 01:54:03;;;;;;;5.28;2.22;;;21.70;85.30;;;;;;5035374;28;20029;-69
2022/08/31 01:56:35;;;;;;;4.75;2.55;;;21.80;85.30;;;;;;5034954;28;20029;-69
2022/08/31 01:59:01;;;;;;;3.00;1.95;;;21.80;85.00;;;;;;5035371;28;20116;-68
2022/08/31 02:01:30;;;;;;;6.40;1.85;;;21.80;85.30;;;;;;5035061;28;20021;-69
2022/08/31 02:03:56;;;;;;;5.13;2.10;;;21.80;85.20;;;;;;5034909;28;20029;-69
2022/08/31 02:06:21;;;;;;;3.47;1.75;;;21.80;85.10;;;;;;5035055;28;20028;-69
2022/08/31 02:08:47;;;;;;;3.72;2.55;;;21.90;85.10;;;;;;5035097;28;20033;-69
2022/08/31 02:11:13;;;;;;;3.15;2.15;;;21.80;85.20;;;;;;5034760;28;20030;-69
2022/08/31 02:13:38;;;;;;;5.25;1.73;;;21.80;85.00;;;;;;5048376;28;20029;-69
2022/08/31 02:16:05;;;;;;;4.32;2.22;;;21.80;85.80;;;;;;5054710;28;20032;-69
2022/08/31 02:18:33;;;;;;;3.75;1.92;;;21.70;85.40;;;;;;5054595;28;20037;-69
2022/08/31 02:20:58;;;;;;;6.55;2.00;;;21.70;85.40;;;;;;5054827;28;20036;-68
2022/08/31 02:23:24;;;;;;;3.22;2.05;;;21.70;85.80;;;;;;5053194;28;20033;-70
2022/08/31 02:25:50;;;;;;;2.92;2.15;;;21.80;85.50;;;;;;5054084;28;20482;-69
2022/08/31 02:28:17;;;;;;;5.18;2.20;;;21.80;85.40;;;;;;5045204;28;20021;-68
2022/08/31 02:30:44;;;;;;;2.17;1.98;;;21.70;85.70;;;;;;5032485;28;20017;-69
2022/08/31 02:33:10;;;;;;;4.30;2.38;;;21.70;85.70;;;;;;5032330;28;20038;-67
2022/08/31 02:35:37;;;;;;;3.55;2.17;;;21.60;86.10;;;;;;5033752;28;20104;-69
2022/08/31 02:38:03;;;;;;;5.20;2.10;;;21.60;86.10;;;;;;5034532;28;20033;-67
2022/08/31 02:40:29;;;;;;;6.50;2.17;;;21.60;85.90;;;;;;5033520;28;20033;-66
2022/08/31 02:42:54;;;;;;;3.25;1.90;;;21.70;85.60;;;;;;5049815;28;20434;-69
2022/08/31 02:45:21;;;;;;;3.88;1.92;;;21.60;86.10;;;;;;5034321;28;20463;-69
2022/08/31 02:47:46;;;;;;;5.35;2.10;;;21.70;86.00;;;;;;5034466;28;20374;-70
2022/08/31 02:50:12;;;;;;;3.70;1.77;;;21.50;86.30;;;;;;5032829;28;20112;-70
2022/08/31 02:52:37;;;;;;;3.42;1.90;;;21.60;86.10;;;;;;5034021;28;20061;-70
2022/08/31 02:55:04;;;;;;;3.05;1.98;;;21.50;86.60;;;;;;5033531;28;20018;-70
2022/08/31 02:57:30;;;;;;;2.33;1.80;;;21.50;86.50;;;;;;5034038;28;20059;-70
2022/08/31 02:59:56;;;;;;;3.78;2.05;;;21.60;86.30;;;;;;5034192;28;20463;-69
2022/08/31 03:02:24;;;;;;;3.65;2.35;;;21.60;86.40;;;;;;5033864;28;20079;-70
2022/08/31 03:04:50;;;;;;;3.50;2.17;;;21.50;86.30;;;;;;5033937;28;20359;-70
2022/08/31 03:07:16;;;;;;;2.78;2.05;;;21.70;86.10;;;;;;5033765;28;20541;-69
2022/08/31 03:09:41;;;;;;;3.70;1.80;;;21.60;86.40;;;;;;5033696;28;20036;-70
2022/08/31 03:12:07;;;;;;;5.82;2.15;;;21.60;86.40;;;;;;5034025;28;20022;-70
2022/08/31 03:14:33;;;;;;;3.42;2.20;;;21.50;86.40;;;;;;5033869;28;20418;-69
2022/08/31 03:16:58;;;;;;;3.83;2.03;;;21.60;86.30;;;;;;5046576;28;20029;-70
2022/08/31 03:19:24;;;;;;;5.63;2.58;;;21.60;86.30;;;;;;5053786;28;20037;-70
2022/08/31 03:21:49;;;;;;;3.17;2.13;;;21.50;86.40;;;;;;5053480;28;20486;-66
2022/08/31 03:24:20;;;;;;;2.40;2.13;;;21.50;86.90;;;;;;5046765;28;20506;-69
2022/08/31 03:26:46;;;;;;;5.50;2.20;;;21.30;87.10;;;;;;5049488;28;20398;-68
2022/08/31 03:29:12;;;;;;;4.13;1.90;;;21.40;87.00;;;;;;5052041;28;20047;-70
2022/08/31 03:31:38;;;;;;;4.28;2.33;;;21.40;86.80;;;;;;5050903;28;20466;-69
2022/08/31 03:34:04;;;;;;;3.38;2.17;;;21.40;87.10;;;;;;5053371;28;20429;-69
2022/08/31 03:36:30;;;;;;;2.33;1.58;;;21.40;87.10;;;;;;5047812;28;20482;-69
2022/08/31 03:38:56;;;;;;;7.90;2.25;;;21.30;87.10;;;;;;5052870;28;20123;-68
2022/08/31 03:41:24;;;;;;;3.83;1.92;;;21.30;87.20;;;;;;5053330;28;20415;-70
2022/08/31 03:43:50;;;;;;;2.70;1.92;;;21.30;87.50;;;;;;5053289;28;20031;-69
2022/08/31 03:46:16;;;;;;;3.35;1.98;;;21.30;87.20;;;;;;5052074;28;20067;-68
2022/08/31 03:48:42;;;;;;;2.38;1.73;;;21.30;87.10;;;;;;5053112;28;20052;-69
2022/08/31 03:51:07;;;;;;;4.35;1.58;;;21.30;87.10;;;;;;5053136;28;20052;-68
2022/08/31 03:53:34;;;;;;;2.53;2.05;;;21.30;87.50;;;;;;5052523;28;20060;-66
2022/08/31 03:56:01;;;;;;;3.28;2.08;;;21.30;87.60;;;;;;5050595;28;20021;-69
2022/08/31 03:58:30;;;;;;;2.28;1.70;;;21.30;87.10;;;;;;5053099;28;20036;-69
2022/08/31 04:00:56;;;;;;;3.88;1.95;;;21.30;87.30;;;;;;5052838;28;20028;-68
2022/08/31 04:03:22;;;;;;;4.30;1.90;;;21.30;87.40;;;;;;5053067;28;20029;-69
2022/08/31 04:05:48;;;;;;;4.10;1.63;;;21.30;87.30;;;;;;5052886;28;20052;-69
2022/08/31 04:08:16;;;;;;;4.72;1.95;;;21.40;87.00;;;;;;5049843;28;20036;-67
2022/08/31 04:10:44;;;;;;;3.97;2.15;;;21.40;87.00;;;;;;5042823;28;20088;-68
2022/08/31 04:13:09;;;;;;;3.67;1.80;;;21.20;87.50;;;;;;5049503;28;20055;-67
2022/08/31 04:15:36;;;;;;;3.53;2.15;;;21.20;87.60;;;;;;5042826;28;20474;-69
2022/08/31 04:18:02;;;;;;;3.97;1.98;;;21.20;87.60;;;;;;5043893;28;20544;-68
2022/08/31 04:20:28;;;;;;;3.33;2.17;;;21.20;87.60;;;;;;5036078;28;20029;-69
2022/08/31 04:22:53;;;;;;;2.78;1.70;;;21.20;87.50;;;;;;5035615;28;20116;-69
2022/08/31 04:25:19;;;;;;;4.10;1.90;;;21.20;87.60;;;;;;5046641;28;20060;-68
2022/08/31 04:27:45;;;;;;;4.00;1.88;;;21.10;88.00;;;;;;5043041;28;20025;-69
2022/08/31 04:30:11;;;;;;;3.58;2.00;;;21.10;87.80;;;;;;5043074;28;20032;-67
2022/08/31 04:32:36;;;;;;;3.95;2.08;;;21.10;87.90;;;;;;5044274;28;20025;-66
2022/08/31 04:35:03;;;;;;;2.72;2.30;;;21.00;88.30;;;;;;5047721;28;20482;-69
2022/08/31 04:37:29;;;;;;;5.57;2.20;;;21.10;88.10;;;;;;5039822;28;20374;-69
2022/08/31 04:39:56;;;;;;;6.18;2.08;;;21.10;88.00;;;;;;5041550;28;20310;-69
2022/08/31 04:42:22;;;;;;;4.30;2.60;;;21.20;87.70;;;;;;5034296;28;20046;-68
2022/08/31 04:44:48;;;;;;;5.88;2.28;;;21.00;88.00;;;;;;5037560;28;20025;-69
2022/08/31 04:47:13;;;;;;;5.65;2.38;;;21.10;88.10;;;;;;5041614;28;20034;-67
2022/08/31 04:49:39;;;;;;;3.17;2.40;;;21.00;88.00;;;;;;5040445;28;20017;-69
2022/08/31 04:52:05;;;;;;;2.95;2.35;;;21.00;88.10;;;;;;5033568;28;20041;-69
2022/08/31 04:54:31;;;;;;;3.60;2.58;;;20.90;88.20;;;;;;5039115;28;20036;-69
2022/08/31 04:56:58;;;;;;;5.78;2.80;;;20.90;88.60;;;;;;5034219;28;20037;-69
2022/08/31 04:59:26;;;;;;;2.85;2.30;;;20.90;87.90;;;;;;5040645;28;20424;-70
2022/08/31 05:01:51;;;;;;;7.35;3.40;;;21.00;87.90;;;;;;5031422;28;20017;-70
2022/08/31 05:04:22;;;;;;;3.78;2.97;;;21.00;87.50;;;;;;5039397;28;20113;-68
2022/08/31 05:06:48;;;;;;;3.15;2.60;;;21.10;87.30;;;;;;5036069;28;20410;-71
2022/08/31 05:09:21;;;;;;;4.18;2.67;;;21.20;87.10;;;;;;5040969;28;20066;-69
2022/08/31 05:11:49;;;;;;;5.28;2.70;;;21.10;87.10;;;;;;5038589;28;20080;-70
2022/08/31 05:14:18;;;;;;;6.25;2.63;;;21.00;87.10;;;;;;5048059;28;20029;-70
2022/08/31 05:16:44;;;;;;;6.18;2.55;;;21.00;87.50;;;;;;5036340;28;20030;-69
2022/08/31 05:19:10;;;;;;;3.55;2.55;;;21.10;87.40;;;;;;5043220;28;20108;-69
2022/08/31 05:21:38;;;;;;;4.72;2.80;;;21.10;87.20;;;;;;5055584;28;20064;-69
2022/08/31 05:24:08;;;;;;;4.97;2.65;;;21.10;87.10;;;;;;5055671;28;20025;-70
2022/08/31 05:26:37;;;;;;;4.88;2.67;;;21.10;87.30;;;;;;5040411;28;20026;-70
2022/08/31 05:29:05;;;;;;;5.28;2.25;;;21.10;87.30;;;;;;5041833;28;20437;-69
2022/08/31 05:31:31;;;;;;;4.43;2.38;;;21.10;87.10;;;;;;5041080;28;20141;-68
2022/08/31 05:33:57;;;;;;;3.63;2.30;;;21.00;87.20;;;;;;5041499;28;20048;-70
2022/08/31 05:36:24;;;;;;;6.18;2.72;;;21.10;87.50;;;;;;5045639;28;20035;-65
2022/08/31 05:38:51;;;;;;;4.05;2.38;;;21.00;87.20;;;;;;5039930;28;20389;-70
2022/08/31 05:41:17;;;;;;;4.93;2.45;;;21.00;87.20;;;;;;5035193;28;20028;-69
2022/08/31 05:43:43;;;;;;;4.80;2.55;;;21.00;87.10;;;;;;5041233;28;20034;-69
2022/08/31 05:46:12;;;;;;;4.93;2.80;;;21.00;87.10;;;;;;5039503;28;20022;-70
2022/08/31 05:48:37;;;;;;;4.70;2.25;;;21.10;87.10;;;;;;5042572;28;20025;-70
2022/08/31 05:51:12;;;;;;;5.00;2.35;;;21.10;87.10;;;;;;5040182;28;20025;-71
2022/08/31 05:53:39;;;;;;;2.95;2.15;;;21.00;87.00;;;;;;5042037;28;20364;-70
2022/08/31 05:56:09;;;;;;;4.95;2.67;;;21.00;87.00;;;;;;5038935;28;20497;-69
2022/08/31 05:58:37;;;;;;;9.98;2.80;;;21.00;87.20;;;;;;5045102;28;20041;-70
2022/08/31 06:01:10;;;;;;;3.92;2.20;;;21.00;86.80;;;;;;5037763;28;20066;-69
2022/08/31 06:03:36;;;;;;;7.00;2.97;;;21.00;86.70;;;;;;5050830;28;20036;-69
2022/08/31 06:06:02;;;;;;;4.30;2.50;;;20.80;87.00;;;;;;5036806;28;20375;-69
2022/08/31 06:08:27;;;;;;;6.20;2.42;;;20.80;87.10;;;;;;5038453;28;20075;-70
2022/08/31 06:10:56;;;;;;;3.30;2.05;;;20.90;87.40;;;;;;5043156;28;20024;-70
2022/08/31 06:13:25;;;;;;;3.28;1.92;;;20.90;86.90;;;;;;5046178;28;20079;-70
2022/08/31 06:15:51;;;;;;;6.20;2.30;;;20.90;86.80;;;;;;5044232;28;20034;-70
2022/08/31 06:18:19;;;;;;;6.20;2.20;;;20.90;87.00;;;;;;5048063;28;20516;-70
2022/08/31 06:20:45;;;;;;;3.83;2.30;;;20.90;86.80;;;;;;5046397;28;20482;-68
2022/08/31 06:23:11;;;;;;;2.65;2.05;;;20.80;86.60;;;;;;5042850;28;20021;-70
2022/08/31 06:25:36;;;;;;;8.60;2.67;;;20.90;86.70;;;;;;5043104;28;20470;-70
2022/08/31 06:28:05;;;;;;;4.28;2.38;;;20.80;87.20;;;;;;5038185;28;20056;-70
2022/08/31 06:30:35;;;;;;;3.10;2.08;;;20.70;87.10;;;;;;5045094;28;20025;-70
2022/08/31 06:33:01;;;;;;;7.68;2.47;;;20.60;87.50;;;;;;5037610;28;20481;-70
2022/08/31 06:35:26;;;;;;;4.70;1.90;;;20.70;87.30;;;;;;5038540;28;20017;-70
2022/08/31 06:37:52;;;;;;;3.28;2.35;;;20.70;87.00;;;;;;5020897;28;20045;-69
2022/08/31 06:40:18;;;;;;;4.95;2.70;;;20.60;86.90;;;;;;5017399;28;20076;-69
2022/08/31 06:42:43;;;;;;;9.32;2.35;;;20.60;87.00;;;;;;5032956;28;20033;-70
2022/08/31 06:45:10;;;;;;;7.03;2.47;;;20.40;87.50;;;;;;5034147;28;20025;-70
2022/08/31 06:47:35;;;;;;;4.57;2.47;;;20.50;87.20;;;;;;5044492;28;20029;-69
2022/08/31 06:50:02;;;;;;;4.60;2.30;;;20.40;87.50;;;;;;5043666;28;20035;-70
2022/08/31 06:52:27;;;;;;;7.18;2.35;;;20.50;87.20;;;;;;5039392;28;20040;-71
2022/08/31 06:54:53;;;;;;;2.97;2.13;;;20.40;87.20;;;;;;5047851;28;20033;-70
2022/08/31 06:57:18;;;;;;;2.70;2.30;;;20.40;87.20;;;;;;5037599;28;20025;-70
2022/08/31 06:59:44;;;;;;;5.50;2.10;;;20.60;87.00;;;;;;5034871;28;21053;-70
2022/08/31 07:02:09;;;;;;;3.67;2.17;;;20.50;86.80;;;;;;5064754;28;20086;-68
2022/08/31 07:04:37;;;;;;;10.30;3.00;;;20.60;86.80;;;;;;5052542;28;20509;-67
2022/08/31 07:07:10;;;;;;;6.93;2.05;;;20.50;86.90;;;;;;5049070;28;20029;-68
2022/08/31 07:09:36;;;;;;;7.55;2.10;;;20.50;86.90;;;;;;5045466;28;20040;-68
2022/08/31 07:12:03;;;;;;;4.47;2.30;;;20.70;86.70;;;;;;5050497;28;20021;-69
2022/08/31 07:14:29;;;;;;;3.40;2.10;;;20.70;86.10;;;;;;5042916;28;20079;-70
2022/08/31 07:16:56;;;;;;;5.25;2.05;;;20.70;86.10;;;;;;5034559;28;20025;-69
2022/08/31 07:19:22;;;;;;;7.78;2.42;;;20.80;85.60;;;;;;5049877;28;20033;-69
2022/08/31 07:21:50;;;;;;;5.60;2.10;;;20.90;85.20;;;;;;5051939;28;20063;-70
2022/08/31 07:24:21;;;;;;;3.00;1.38;;;20.90;85.30;;;;;;5052329;28;20063;-71
2022/08/31 07:26:59;;;;;;;7.50;2.00;;;20.90;85.30;;;;;;5049912;28;20572;-72
2022/08/31 07:29:31;;;;;;;5.18;2.00;;;21.00;85.10;;;;;;5050286;28;20031;-72
2022/08/31 07:31:58;;;;;;;3.63;1.70;;;21.00;84.80;;;;;;5038446;28;20031;-70
2022/08/31 07:34:26;;;;;;;3.28;1.90;;;21.10;84.70;;;;;;5046755;28;20363;-72
2022/08/31 07:42:28;;;;;;;3.33;1.92;;;21.30;83.50;;;;;;5047709;28;20040;-71
2022/08/31 07:44:55;;;;;;;5.18;1.85;;;21.40;83.50;;;;;;5050023;28;20028;-71
2022/08/31 07:47:24;;;;;;;9.93;2.40;;;21.40;83.80;;;;;;5051675;28;20459;-70
2022/08/31 07:49:51;;;;;;;6.22;2.42;;;21.40;83.10;;;;;;5041786;28;20079;-70
2022/08/31 07:52:25;;;;;;;3.78;1.90;;;21.50;82.90;;;;;;5045060;28;20021;-68
2022/08/31 07:54:53;;;;;;;4.70;1.90;;;21.60;82.60;;;;;;5038936;28;20036;-71
2022/08/31 07:57:21;;;;;;;2.63;1.90;;;21.60;82.50;;;;;;5031754;28;20471;-70
2022/08/31 07:59:53;;;;;;;4.65;2.13;;;21.70;82.30;;;;;;5044679;28;20026;-70
2022/08/31 08:02:20;;;;;;;5.32;1.95;;;21.70;82.10;;;;;;5034782;28;20021;-68
2022/08/31 08:04:45;;;;;;;3.95;1.27;;;21.80;82.00;;;;;;5041092;28;20032;-70
2022/08/31 08:07:11;;;;;;;3.45;1.73;;;21.80;82.20;;;;;;5039650;28;20021;-70
2022/08/31 08:09:37;;;;;;;3.70;1.63;;;21.90;81.80;;;;;;5042883;28;20090;-70
2022/08/31 08:12:05;;;;;;;7.10;2.15;;;21.90;82.10;;;;;;5043960;28;20068;-69
2022/08/31 08:14:36;;;;;;;3.28;2.10;;;22.00;82.00;;;;;;5047922;28;20029;-70
2022/08/31 08:17:06;;;;;;;6.10;2.05;;;22.00;81.50;;;;;;5043036;28;20036;-70
2022/08/31 08:19:35;;;;;;;4.75;1.90;;;22.00;81.50;;;;;;5046668;28;20028;-70
2022/08/31 08:22:02;;;;;;;3.85;1.80;;;22.10;81.40;;;;;;5039714;28;20530;-69
2022/08/31 08:24:30;;;;;;;5.03;1.60;;;22.00;81.40;;;;;;5040777;28;20470;-68
2022/08/31 08:26:56;;;;;;;3.28;1.92;;;22.10;81.30;;;;;;5041579;28;20021;-69
2022/08/31 08:29:22;;;;;;;7.60;1.92;;;22.10;81.20;;;;;;5041741;28;20029;-71
2022/08/31 08:31:53;;;;;;;4.40;1.70;;;22.10;81.00;;;;;;5043781;28;20169;-71
2022/08/31 08:34:20;;;;;;;4.35;1.98;;;22.20;81.30;;;;;;5041919;28;20013;-70
2022/08/31 08:36:47;;;;;;;2.60;1.50;;;22.10;80.90;;;;;;5042051;28;20025;-70
2022/08/31 08:39:13;;;;;;;2.92;1.55;;;22.20;81.10;;;;;;5041519;28;20446;-71
2022/08/31 08:41:41;;;;;;;4.82;1.88;;;22.20;81.20;;;;;;5042242;28;20029;-70
2022/08/31 08:44:13;;;;;;;6.10;1.80;;;22.20;80.70;;;;;;5061214;28;20025;-70
2022/08/31 08:46:46;;;;;;;3.25;2.22;;;22.20;81.20;;;;;;5044133;28;20148;-69
2022/08/31 08:49:31;;;;;;;2.97;2.03;;;22.20;80.80;;;;;;5045951;28;20470;-71
2022/08/31 08:52:02;;;;;;;4.88;1.50;;;22.30;80.90;;;;;;5044822;28;20024;-70
2022/08/31 08:54:32;;;;;;;3.03;1.87;;;22.20;80.90;;;;;;5047047;28;20033;-69
2022/08/31 08:56:59;;;;;;;8.70;2.00;;;22.30;80.70;;;;;;5042676;28;20104;-69
2022/08/31 08:59:26;;;;;;;7.47;1.65;;;22.30;80.80;;;;;;5043487;28;20128;-69
2022/08/31 09:02:00;;;;;;;7.30;2.25;;;22.30;81.90;;;;;;5041386;28;20021;-70
2022/08/31 09:04:32;;;;;;;6.03;2.05;;;22.30;80.80;;;;;;5045849;28;20269;-71
2022/08/31 09:07:12;;;;;;;6.38;1.63;;;22.20;81.10;;;;;;5052780;28;20021;-71
2022/08/31 09:10:04;;;;;;;6.38;1.98;;;22.20;81.80;;;;;;5045700;28;20029;-70
2022/08/31 09:12:45;;;;;;;6.50;1.98;;;22.30;81.00;;;;;;5041422;28;20382;-70
2022/08/31 09:15:42;;;;;;;4.63;1.95;;;22.30;81.30;;;;;;5041146;28;20441;-71
2022/08/31 09:18:20;;;;;;;4.55;1.92;;;22.30;81.10;;;;;;5008481;28;20049;-71
2022/08/31 09:21:28;;;;;;;8.88;2.22;;;22.30;81.10;;;;;;5047203;28;20029;-70
2022/08/31 09:24:01;;;;;;;3.03;1.77;;;22.30;81.30;;;;;;5037638;28;20033;-71
2022/08/31 09:26:34;;;;;;;7.22;2.17;;;22.20;81.80;;;;;;5039074;28;20036;-68
2022/08/31 09:29:02;;;;;;;6.43;1.92;;;22.30;81.30;;;;;;5043913;28;20066;-71
2022/08/31 09:31:45;;;;;;;4.65;2.30;;;22.20;81.30;;;;;;5050205;28;20363;-68
2022/08/31 09:34:35;;;;;;;7.13;1.65;;;22.30;81.40;;;;;;5040051;28;20028;-70
2022/08/31 09:37:18;;;;;;;6.65;2.05;;;22.40;81.10;;;;;;5037120;28;20083;-69
2022/08/31 09:39:47;;;;;;;3.40;1.67;;;22.50;80.70;;;;;;5038778;28;20064;-71
2022/08/31 09:42:33;;;;;;;5.95;2.38;;;22.50;81.10;;;;;;5044158;28;20020;-70
2022/08/31 09:45:08;;;;;;;5.90;2.10;;;22.40;80.80;;;;;;5037448;28;20041;-70
2022/08/31 09:47:59;;;;;;;5.05;2.15;;;22.40;81.10;;;;;;5039079;28;20022;-71
2022/08/31 09:50:36;;;;;;;4.30;2.28;;;22.40;81.20;;;;;;5040211;28;20029;-70
2022/08/31 09:56:14;;;;;;;3.33;1.88;;;22.20;81.50;;;;;;5034853;28;20032;-70
2022/08/31 09:59:01;;;;;;;4.60;2.08;;;22.30;81.70;;;;;;5041233;28;20040;-71
2022/08/31 10:01:42;;;;;;;2.63;1.77;;;22.30;81.30;;;;;;5039509;28;20094;-70
2022/08/31 10:04:25;;;;;;;6.80;2.13;;;22.30;81.20;;;;;;5046076;28;20054;-70
2022/08/31 10:07:27;;;;;;;11.55;2.33;;;22.30;81.40;;;;;;5046445;28;20035;-71
2022/08/31 10:10:02;;;;;;;7.82;1.75;;;22.40;81.50;;;;;;5047548;28;20017;-68
2022/08/31 10:12:47;;;;;;;6.28;1.90;;;22.50;81.00;;;;;;5039666;28;20549;-66
2022/08/31 10:15:27;;;;;;;3.92;1.90;;;22.40;81.00;;;;;;5045270;28;20505;-70
2022/08/31 10:18:02;;;;;;;4.28;1.90;;;22.40;81.10;;;;;;5041566;28;20079;-70
2022/08/31 10:20:38;;;;;;;5.18;1.60;;;22.40;81.10;;;;;;5033141;28;20018;-68
2022/08/31 10:23:13;;;;;;;5.68;1.52;;;22.40;81.20;;;;;;5033264;28;20033;-71
2022/08/31 10:25:47;;;;;;;4.32;2.33;;;22.50;81.00;;;;;;5050168;28;20075;-69
2022/08/31 10:28:19;;;;;;;5.57;1.77;;;22.40;80.70;;;;;;5039417;28;20059;-67
2022/08/31 10:31:02;;;;;;;3.47;1.80;;;22.50;81.00;;;;;;5038466;28;20378;-68
2022/08/31 10:35:01;;;;;;;5.78;1.80;;;22.40;81.10;;;;;;5036554;28;20040;-70
2022/08/31 10:36:16;;;;;;;4.95;2.22;;;22.50;81.30;;;;;;5044888;28;20110;-70
2022/08/31 10:38:46;;;;;;;7.50;2.25;;;22.50;80.90;;;;;;5044276;28;20398;-70
2022/08/31 10:41:17;;;;;;;4.65;1.98;;;22.60;81.00;;;;;;5042002;28;20497;-69
2022/08/31 10:43:49;;;;;;;3.90;1.85;;;22.60;80.80;;;;;;5038284;28;20075;-70
2022/08/31 10:46:15;;;;;;;5.60;2.08;;;22.70;80.80;;;;;;5050348;28;20086;-70
2022/08/31 10:48:45;;;;;;;3.40;2.28;;;22.70;80.80;;;;;;5036298;28;20068;-70
2022/08/31 10:51:18;;;;;;;5.35;2.17;;;22.50;80.70;;;;;;5044314;28;20055;-69
2022/08/31 10:53:58;;;;;;;2.97;2.20;;;22.50;80.90;;;;;;5040079;28;20013;-69
2022/08/31 10:56:57;;;;;;;4.00;2.20;;;22.60;81.00;;;;;;5040956;28;20025;-69
2022/08/31 10:59:41;;;;;;;6.00;2.22;;;22.70;81.10;;;;;;5043799;28;20677;-70
2022/08/31 11:02:09;;;;;;;3.95;2.40;;;22.70;80.70;;;;;;5032087;28;20033;-71
2022/08/31 11:04:47;;;;;;;3.88;1.80;;;22.70;80.90;;;;;;5044595;28;20029;-71
2022/08/31 11:07:38;;;;;;;3.75;1.90;;;22.80;80.70;;;;;;5034614;28;20103;-68
2022/08/31 11:10:41;;;;;;;3.80;1.75;;;22.90;80.40;;;;;;5042987;28;20053;-71
2022/08/31 11:13:37;;;;;;;7.28;1.90;;;22.90;80.10;;;;;;5041986;28;20047;-70
2022/08/31 11:16:37;;;;;;;4.70;2.38;;;23.00;80.10;;;;;;5036607;28;20025;-72
2022/08/31 11:19:16;;;;;;;5.13;2.63;;;22.90;79.90;;;;;;5037271;28;20029;-71
2022/08/31 11:22:18;;;;;;;6.80;2.50;;;22.90;80.10;;;;;;5037699;28;20159;-68
2022/08/31 11:25:26;;;;;;;8.63;2.78;;;23.00;79.80;;;;;;5039503;28;20036;-69
2022/08/31 11:28:08;;;;;;;6.13;2.20;;;22.90;79.80;;;;;;5021265;28;20429;-68
2022/08/31 11:30:40;;;;;;;3.95;2.45;;;23.00;79.80;;;;;;5039252;28;20017;-70
2022/08/31 11:33:18;;;;;;;3.20;2.40;;;23.00;79.90;;;;;;5036131;28;20506;-69
2022/08/31 11:35:59;;;;;;;4.85;2.83;;;23.00;79.70;;;;;;5038814;28;20030;-69
2022/08/31 11:38:53;;;;;;;4.28;2.35;;;23.00;79.60;;;;;;5031354;28;20976;-70
2022/08/31 11:41:49;;;;;;;4.07;2.63;;;23.10;79.70;;;;;;5043045;28;20684;-69
2022/08/31 11:44:38;;;;;;;8.25;3.00;;;23.10;79.50;;;;;;5041905;28;20070;-71
2022/08/31 11:47:13;;;;;;;8.02;2.92;;;23.10;79.70;;;;;;5043668;28;20025;-71
2022/08/31 11:49:48;;;;;;;6.10;2.53;;;23.10;79.60;;;;;;5037736;28;20491;-70
2022/08/31 11:52:24;;;;;;;9.43;2.90;;;23.10;79.80;;;;;;5035152;28;20029;-69
2022/08/31 11:54:51;;;;;;;6.68;2.88;;;23.10;79.60;;;;;;5049635;28;20124;-71
2022/08/31 11:57:22;;;;;;;4.88;2.70;;;23.20;79.60;;;;;;5035202;28;20025;-71
2022/08/31 11:59:49;;;;;;;8.65;3.13;;;23.20;79.80;;;;;;5037981;28;20159;-70
2022/08/31 12:02:24;;;;;;;7.45;3.67;;;23.10;79.50;;;;;;5032049;28;20025;-70
2022/08/31 12:04:59;;;;;;;6.50;3.10;;;23.10;79.70;;;;;;5040221;28;20030;-71
2022/08/31 12:07:28;;;;;;;4.55;2.67;;;23.20;79.60;;;;;;5053021;28;20100;-71
2022/08/31 12:10:06;;;;;;;7.13;3.58;;;23.20;79.70;;;;;;5036940;28;20041;-71
2022/08/31 12:12:36;;;;;;;5.18;2.75;;;23.20;80.10;;;;;;5049713;28;20582;-70
2022/08/31 12:15:17;;;;;;;6.97;3.13;;;23.30;79.70;;;;;;5041637;28;20030;-70
2022/08/31 12:17:54;;;;;;;5.07;3.33;;;23.30;79.70;;;;;;5041589;28;20044;-71
2022/08/31 12:23:43;;;;;;;4.93;3.88;;;23.30;79.70;;;;;;5040064;28;20605;-70
2022/08/31 12:26:28;;;;;;;8.98;3.38;;;23.30;79.40;;;;;;5043839;28;20026;-70
2022/08/31 12:29:15;;;;;;;4.00;3.47;;;23.30;79.80;;;;;;5043026;28;20056;-69
2022/08/31 12:32:00;;;;;;;3.25;2.67;;;23.30;79.80;;;;;;5039936;28;20025;-70
2022/08/31 12:34:27;;;;;;;7.68;3.20;;;23.40;79.90;;;;;;5040279;28;20099;-71
2022/08/31 12:36:52;;;;;;;8.10;4.15;;;23.40;79.70;;;;;;5038930;28;20497;-67
2022/08/31 12:39:18;;;;;;;5.53;4.10;;;23.40;79.60;;;;;;5042989;28;20037;-70
2022/08/31 12:41:52;;;;;;;7.15;3.50;;;23.40;79.80;;;;;;5045316;28;20047;-67
2022/08/31 12:44:27;;;;;;;6.65;3.30;;;23.40;80.20;;;;;;5051469;28;20017;-70
2022/08/31 12:47:23;;;;;;;5.40;3.58;;;23.40;79.90;;;;;;5042530;28;20025;-70
2022/08/31 12:50:04;;;;;;;7.88;3.70;;;23.40;79.70;;;;;;5042331;28;20025;-69
2022/08/31 12:52:43;;;;;;;5.03;3.88;;;23.50;80.00;;;;;;5042300;28;20433;-69
2022/08/31 12:55:22;;;;;;;6.35;3.80;;;23.50;79.60;;;;;;5035257;28;20034;-70
2022/08/31 12:58:01;;;;;;;5.15;3.65;;;23.50;79.50;;;;;;5045586;28;20024;-70
2022/08/31 13:00:33;;;;;;;10.32;4.47;;;23.50;79.40;;;;;;5072267;28;20020;-69
2022/08/31 13:03:16;;;;;;;6.95;4.15;;;23.60;79.50;;;;;;5049998;28;20500;-70
2022/08/31 13:05:56;;;;;;;8.32;4.40;;;23.60;79.10;;;;;;5041172;28;20022;-69
2022/08/31 13:08:24;;;;;;;6.00;4.70;;;23.60;79.10;;;;;;5036472;28;20497;-68
2022/08/31 13:10:50;;;;;;;7.78;4.63;;;23.60;79.00;;;;;;5038923;28;20025;-69
2022/08/31 13:13:23;;;;;;;11.85;5.32;;;23.60;79.10;;;;;;5044377;28;20038;-69
2022/08/31 13:15:49;;;;;;;5.45;4.05;;;23.70;78.90;;;;;;5038583;28;20020;-70
2022/08/31 13:18:21;;;;;;;4.53;4.07;;;23.70;78.70;;;;;;5042909;28;20033;-69
2022/08/31 13:20:51;;;;;;;;;;;23.70;78.40;;;;;;5051103;28;20103;-69
2022/08/31 13:23:29;;;;;;;6.40;3.42;;;23.70;78.80;;;;;;5041855;28;19920;-70